sensor_id;sensor_type;location;lat;lon;timestamp;P1;durP1;ratioP1;P2;durP2;ratioP2
57535;SDS011;43361;49.790;8.960;2023-03-01T00:01:57;3.50;;;1.83;;
57535;SDS011;43361;49.790;8.960;2023-03-01T00:11:59;4.30;;;1.95;;
57535;SDS011;43361;49.790;8.960;2023-03-01T00:21:59;4.50;;;2.03;;
57535;SDS011;43361;49.790;8.960;2023-03-01T00:32:01;3.60;;;2.25;;
57535;SDS011;43361;49.790;8.960;2023-03-01T00:42:01;4.30;;;2.30;;
57535;SDS011;43361;49.790;8.960;2023-03-01T00:52:03;3.40;;;2.15;;
57535;SDS011;43361;49.790;8.960;2023-03-01T01:02:04;4.93;;;2.15;;
57535;SDS011;43361;49.790;8.960;2023-03-01T01:12:06;3.35;;;2.20;;
57535;SDS011;43361;49.790;8.960;2023-03-01T01:22:07;4.30;;;2.28;;
57535;SDS011;43361;49.790;8.960;2023-03-01T01:32:08;4.35;;;2.30;;
57535;SDS011;43361;49.790;8.960;2023-03-01T01:42:11;4.45;;;2.30;;
57535;SDS011;43361;49.790;8.960;2023-03-01T01:52:16;4.57;;;2.33;;
57535;SDS011;43361;49.790;8.960;2023-03-01T02:02:17;4.53;;;2.10;;
57535;SDS011;43361;49.790;8.960;2023-03-01T02:12:20;3.33;;;2.17;;
57535;SDS011;43361;49.790;8.960;2023-03-01T02:22:22;4.80;;;2.20;;
57535;SDS011;43361;49.790;8.960;2023-03-01T02:32:25;3.65;;;2.00;;
57535;SDS011;43361;49.790;8.960;2023-03-01T02:42:26;3.25;;;1.95;;
57535;SDS011;43361;49.790;8.960;2023-03-01T02:52:33;5.25;;;2.08;;
57535;SDS011;43361;49.790;8.960;2023-03-01T03:02:35;2.72;;;1.98;;
57535;SDS011;43361;49.790;8.960;2023-03-01T03:12:39;4.22;;;1.77;;
57535;SDS011;43361;49.790;8.960;2023-03-01T03:22:40;2.72;;;1.73;;
57535;SDS011;43361;49.790;8.960;2023-03-01T03:32:42;3.20;;;1.95;;
57535;SDS011;43361;49.790;8.960;2023-03-01T03:42:52;4.05;;;1.75;;
57535;SDS011;43361;49.790;8.960;2023-03-01T03:52:53;3.00;;;1.95;;
57535;SDS011;43361;49.790;8.960;2023-03-01T04:02:54;3.08;;;2.10;;
57535;SDS011;43361;49.790;8.960;2023-03-01T04:12:57;3.20;;;2.10;;
57535;SDS011;43361;49.790;8.960;2023-03-01T04:23:00;2.80;;;1.77;;
57535;SDS011;43361;49.790;8.960;2023-03-01T04:33:11;5.10;;;2.22;;
57535;SDS011;43361;49.790;8.960;2023-03-01T04:43:12;3.42;;;2.28;;
57535;SDS011;43361;49.790;8.960;2023-03-01T04:53:16;3.13;;;1.98;;
57535;SDS011;43361;49.790;8.960;2023-03-01T05:03:18;3.63;;;1.83;;
57535;SDS011;43361;49.790;8.960;2023-03-01T05:13:20;3.43;;;2.10;;
57535;SDS011;43361;49.790;8.960;2023-03-01T05:23:21;3.88;;;1.90;;
57535;SDS011;43361;49.790;8.960;2023-03-01T05:33:23;3.00;;;1.80;;
57535;SDS011;43361;49.790;8.960;2023-03-01T05:43:24;3.00;;;1.83;;
57535;SDS011;43361;49.790;8.960;2023-03-01T05:53:26;4.88;;;1.80;;
57535;SDS011;43361;49.790;8.960;2023-03-01T06:03:26;3.60;;;1.90;;
57535;SDS011;43361;49.790;8.960;2023-03-01T06:13:28;3.75;;;2.00;;
57535;SDS011;43361;49.790;8.960;2023-03-01T06:23:29;10.18;;;3.15;;
57535;SDS011;43361;49.790;8.960;2023-03-01T06:33:31;14.60;;;3.80;;
57535;SDS011;43361;49.790;8.960;2023-03-01T06:43:32;18.33;;;4.28;;
57535;SDS011;43361;49.790;8.960;2023-03-01T06:53:33;23.15;;;6.03;;
57535;SDS011;43361;49.790;8.960;2023-03-01T07:13:39;14.55;;;5.68;;
57535;SDS011;43361;49.790;8.960;2023-03-01T07:23:40;14.93;;;5.30;;
57535;SDS011;43361;49.790;8.960;2023-03-01T07:33:42;13.25;;;5.00;;
57535;SDS011;43361;49.790;8.960;2023-03-01T07:43:42;15.23;;;5.20;;
57535;SDS011;43361;49.790;8.960;2023-03-01T07:53:46;12.00;;;5.15;;
57535;SDS011;43361;49.790;8.960;2023-03-01T08:03:48;13.23;;;5.10;;
57535;SDS011;43361;49.790;8.960;2023-03-01T08:13:49;13.23;;;4.88;;
57535;SDS011;43361;49.790;8.960;2023-03-01T08:23:50;9.02;;;4.30;;
57535;SDS011;43361;49.790;8.960;2023-03-01T08:33:52;12.30;;;4.75;;
57535;SDS011;43361;49.790;8.960;2023-03-01T08:43:56;11.00;;;4.90;;
57535;SDS011;43361;49.790;8.960;2023-03-01T08:54:00;14.07;;;4.50;;
57535;SDS011;43361;49.790;8.960;2023-03-01T09:04:00;8.10;;;4.30;;
57535;SDS011;43361;49.790;8.960;2023-03-01T09:14:04;9.05;;;4.20;;
57535;SDS011;43361;49.790;8.960;2023-03-01T09:24:05;10.68;;;3.90;;
57535;SDS011;43361;49.790;8.960;2023-03-01T09:34:07;10.02;;;4.20;;
57535;SDS011;43361;49.790;8.960;2023-03-01T09:44:10;8.38;;;4.28;;
57535;SDS011;43361;49.790;8.960;2023-03-01T09:54:12;12.13;;;4.75;;
57535;SDS011;43361;49.790;8.960;2023-03-01T10:04:24;10.68;;;3.95;;
57535;SDS011;43361;49.790;8.960;2023-03-01T10:14:29;8.73;;;3.92;;
57535;SDS011;43361;49.790;8.960;2023-03-01T10:24:32;7.70;;;4.30;;
57535;SDS011;43361;49.790;8.960;2023-03-01T10:34:35;8.07;;;3.90;;
57535;SDS011;43361;49.790;8.960;2023-03-01T10:44:41;6.68;;;3.45;;
57535;SDS011;43361;49.790;8.960;2023-03-01T10:54:43;8.95;;;4.15;;
57535;SDS011;43361;49.790;8.960;2023-03-01T11:04:56;6.67;;;4.00;;
57535;SDS011;43361;49.790;8.960;2023-03-01T11:14:58;7.00;;;3.70;;
57535;SDS011;43361;49.790;8.960;2023-03-01T11:24:58;11.82;;;4.10;;
57535;SDS011;43361;49.790;8.960;2023-03-01T11:35:01;10.02;;;3.78;;
57535;SDS011;43361;49.790;8.960;2023-03-01T11:45:05;8.43;;;4.43;;
57535;SDS011;43361;49.790;8.960;2023-03-01T11:55:12;8.18;;;3.60;;
57535;SDS011;43361;49.790;8.960;2023-03-01T12:05:31;11.80;;;4.05;;
57535;SDS011;43361;49.790;8.960;2023-03-01T12:15:44;6.60;;;3.70;;
57535;SDS011;43361;49.790;8.960;2023-03-01T12:25:48;7.35;;;3.33;;
57535;SDS011;43361;49.790;8.960;2023-03-01T12:36:15;7.25;;;3.70;;
57535;SDS011;43361;49.790;8.960;2023-03-01T12:46:21;7.50;;;3.92;;
57535;SDS011;43361;49.790;8.960;2023-03-01T12:56:27;8.90;;;3.25;;
57535;SDS011;43361;49.790;8.960;2023-03-01T13:06:29;6.68;;;3.40;;
57535;SDS011;43361;49.790;8.960;2023-03-01T13:16:42;9.35;;;3.05;;
57535;SDS011;43361;49.790;8.960;2023-03-01T13:37:09;10.77;;;3.22;;
57535;SDS011;43361;49.790;8.960;2023-03-01T13:47:14;8.80;;;3.10;;
57535;SDS011;43361;49.790;8.960;2023-03-01T13:57:20;8.25;;;3.20;;
57535;SDS011;43361;49.790;8.960;2023-03-01T14:07:22;10.15;;;3.80;;
57535;SDS011;43361;49.790;8.960;2023-03-01T14:17:37;12.95;;;3.70;;
57535;SDS011;43361;49.790;8.960;2023-03-01T14:27:39;6.93;;;2.75;;
57535;SDS011;43361;49.790;8.960;2023-03-01T14:37:43;5.75;;;3.08;;
57535;SDS011;43361;49.790;8.960;2023-03-01T14:47:43;8.07;;;3.35;;
57535;SDS011;43361;49.790;8.960;2023-03-01T14:57:46;10.75;;;2.92;;
57535;SDS011;43361;49.790;8.960;2023-03-01T15:07:47;8.07;;;3.20;;
57535;SDS011;43361;49.790;8.960;2023-03-01T15:17:52;6.93;;;3.05;;
57535;SDS011;43361;49.790;8.960;2023-03-01T15:27:55;9.02;;;3.15;;
57535;SDS011;43361;49.790;8.960;2023-03-01T15:37:58;10.48;;;3.05;;
57535;SDS011;43361;49.790;8.960;2023-03-01T15:48:02;6.35;;;3.00;;
57535;SDS011;43361;49.790;8.960;2023-03-01T15:58:10;6.43;;;2.97;;
57535;SDS011;43361;49.790;8.960;2023-03-01T16:08:12;4.18;;;2.60;;
57535;SDS011;43361;49.790;8.960;2023-03-01T16:18:14;14.52;;;2.53;;
57535;SDS011;43361;49.790;8.960;2023-03-01T16:28:14;17.83;;;3.25;;
57535;SDS011;43361;49.790;8.960;2023-03-01T16:38:16;16.20;;;3.28;;
57535;SDS011;43361;49.790;8.960;2023-03-01T16:48:16;12.57;;;3.20;;
57535;SDS011;43361;49.790;8.960;2023-03-01T16:58:18;9.52;;;3.08;;
57535;SDS011;43361;49.790;8.960;2023-03-01T17:08:18;15.32;;;3.30;;
57535;SDS011;43361;49.790;8.960;2023-03-01T17:18:20;7.47;;;3.00;;
57535;SDS011;43361;49.790;8.960;2023-03-01T17:28:21;10.63;;;3.55;;
57535;SDS011;43361;49.790;8.960;2023-03-01T17:38:22;9.13;;;3.25;;
57535;SDS011;43361;49.790;8.960;2023-03-01T17:48:23;31.20;;;4.13;;
57535;SDS011;43361;49.790;8.960;2023-03-01T17:58:26;9.07;;;2.75;;
57535;SDS011;43361;49.790;8.960;2023-03-01T18:08:26;16.90;;;3.75;;
57535;SDS011;43361;49.790;8.960;2023-03-01T18:18:28;10.50;;;4.30;;
57535;SDS011;43361;49.790;8.960;2023-03-01T18:28:29;16.63;;;4.25;;
57535;SDS011;43361;49.790;8.960;2023-03-01T18:38:31;14.85;;;4.47;;
57535;SDS011;43361;49.790;8.960;2023-03-01T18:48:31;13.35;;;4.03;;
57535;SDS011;43361;49.790;8.960;2023-03-01T18:58:33;14.13;;;3.70;;
57535;SDS011;43361;49.790;8.960;2023-03-01T19:08:34;8.40;;;3.97;;
57535;SDS011;43361;49.790;8.960;2023-03-01T19:18:36;8.70;;;3.38;;
57535;SDS011;43361;49.790;8.960;2023-03-01T19:28:39;11.35;;;3.88;;
57535;SDS011;43361;49.790;8.960;2023-03-01T19:38:41;9.05;;;3.65;;
57535;SDS011;43361;49.790;8.960;2023-03-01T19:48:41;10.45;;;3.45;;
57535;SDS011;43361;49.790;8.960;2023-03-01T19:58:45;19.25;;;3.40;;
57535;SDS011;43361;49.790;8.960;2023-03-01T20:08:49;10.27;;;3.60;;
57535;SDS011;43361;49.790;8.960;2023-03-01T20:18:51;11.07;;;3.50;;
57535;SDS011;43361;49.790;8.960;2023-03-01T20:28:52;8.95;;;3.35;;
57535;SDS011;43361;49.790;8.960;2023-03-01T20:38:54;9.90;;;3.70;;
57535;SDS011;43361;49.790;8.960;2023-03-01T20:48:55;7.35;;;3.95;;
57535;SDS011;43361;49.790;8.960;2023-03-01T20:58:56;8.90;;;3.15;;
57535;SDS011;43361;49.790;8.960;2023-03-01T21:08:57;10.57;;;3.03;;
57535;SDS011;43361;49.790;8.960;2023-03-01T21:18:59;5.93;;;3.28;;
57535;SDS011;43361;49.790;8.960;2023-03-01T21:29:00;13.63;;;3.47;;
57535;SDS011;43361;49.790;8.960;2023-03-01T21:39:02;6.45;;;3.35;;
57535;SDS011;43361;49.790;8.960;2023-03-01T21:49:04;7.57;;;3.25;;
57535;SDS011;43361;49.790;8.960;2023-03-01T21:59:07;7.63;;;3.17;;
57535;SDS011;43361;49.790;8.960;2023-03-01T22:09:08;5.78;;;3.03;;
57535;SDS011;43361;49.790;8.960;2023-03-01T22:19:12;6.07;;;3.00;;
57535;SDS011;43361;49.790;8.960;2023-03-01T22:29:14;6.90;;;3.33;;
57535;SDS011;43361;49.790;8.960;2023-03-01T22:39:17;5.53;;;3.15;;
57535;SDS011;43361;49.790;8.960;2023-03-01T22:49:18;5.05;;;3.00;;
57535;SDS011;43361;49.790;8.960;2023-03-01T22:59:20;5.40;;;2.95;;
57535;SDS011;43361;49.790;8.960;2023-03-01T23:09:24;5.47;;;2.90;;
57535;SDS011;43361;49.790;8.960;2023-03-01T23:19:26;7.53;;;2.90;;
57535;SDS011;43361;49.790;8.960;2023-03-01T23:29:27;6.68;;;2.83;;
57535;SDS011;43361;49.790;8.960;2023-03-01T23:39:28;6.45;;;3.10;;
57535;SDS011;43361;49.790;8.960;2023-03-01T23:49:29;4.97;;;2.90;;
57535;SDS011;43361;49.790;8.960;2023-03-01T23:59:31;6.13;;;3.55;;
